Time;durP1;ratioP1;P1;durP2;ratioP2;P2;SDS_P1;SDS_P2;PMS_P1;PMS_P2;Temp;Humidity;BMP_temperature;BMP_pressure;BME280_temperature;BME280_humidity;BME280_pressure;Samples;Min_cycle;Max_cycle;Signal;HPM_P1;HPM_P2
2021/12/26 00:01:00;;;;;;;2.75;1.30;;;-5.10;97.50;;;;;;4997118;28;20095;-69
2021/12/26 00:03:28;;;;;;;3.20;1.35;;;-5.10;97.20;;;;;;4989215;28;20657;-66
2021/12/26 00:05:57;;;;;;;4.45;1.75;;;-5.10;97.20;;;;;;4994368;28;20078;-66
2021/12/26 00:08:25;;;;;;;3.22;1.35;;;-5.10;97.50;;;;;;4994539;28;20042;-70
2021/12/26 00:10:51;;;;;;;3.95;1.30;;;-5.10;97.10;;;;;;4998548;28;20058;-67
2021/12/26 00:13:18;;;;;;;2.70;1.40;;;-5.20;97.20;;;;;;4999857;28;20470;-66
2021/12/26 00:15:45;;;;;;;3.38;1.60;;;-5.10;97.10;;;;;;5000363;28;20049;-66
2021/12/26 00:18:10;;;;;;;3.08;1.20;;;-5.20;96.90;;;;;;4989406;28;20038;-67
2021/12/26 00:20:37;;;;;;;4.13;1.60;;;-5.20;96.80;;;;;;4989160;28;20057;-66
2021/12/26 00:23:03;;;;;;;4.97;1.58;;;-5.10;96.80;;;;;;4969163;28;20450;-66
2021/12/26 00:25:29;;;;;;;5.95;1.92;;;-5.20;97.10;;;;;;4987913;28;20121;-66
2021/12/26 00:27:55;;;;;;;3.17;1.13;;;-5.20;96.90;;;;;;4998125;28;20046;-66
2021/12/26 00:30:21;;;;;;;4.43;1.40;;;-5.20;96.70;;;;;;4987138;28;20049;-66
2021/12/26 00:32:48;;;;;;;4.43;1.63;;;-5.20;96.50;;;;;;4991125;28;20257;-70
2021/12/26 00:35:16;;;;;;;3.40;1.50;;;-5.20;96.30;;;;;;4992846;28;20076;-68
2021/12/26 00:37:44;;;;;;;4.82;1.77;;;-5.30;96.60;;;;;;4990182;28;20065;-67
2021/12/26 00:40:12;;;;;;;3.05;1.50;;;-5.30;96.70;;;;;;4989525;28;20042;-69
2021/12/26 00:42:38;;;;;;;1.98;1.10;;;-5.30;97.00;;;;;;4999436;28;20056;-66
2021/12/26 00:45:06;;;;;;;1.88;1.05;;;-5.20;96.90;;;;;;4995491;28;20708;-66
2021/12/26 00:47:32;;;;;;;2.00;1.08;;;-5.30;96.60;;;;;;4990991;28;20632;-66
2021/12/26 00:49:58;;;;;;;4.68;2.08;;;-5.30;96.90;;;;;;4992530;28;20042;-66
2021/12/26 00:52:24;;;;;;;8.15;1.45;;;-5.30;96.80;;;;;;4994162;28;20034;-67
2021/12/26 00:54:49;;;;;;;2.07;1.00;;;-5.30;96.20;;;;;;4999242;28;20171;-66
2021/12/26 00:57:15;;;;;;;2.37;1.20;;;-5.30;96.30;;;;;;4998295;28;20034;-66
2021/12/26 00:59:41;;;;;;;8.17;1.50;;;-5.30;95.40;;;;;;4996443;28;20503;-67
2021/12/26 01:02:06;;;;;;;2.80;1.50;;;-5.30;95.40;;;;;;4991223;28;20439;-65
2021/12/26 01:04:32;;;;;;;4.77;1.20;;;-5.30;95.70;;;;;;4999709;28;20041;-65
2021/12/26 01:06:59;;;;;;;5.30;2.07;;;-5.30;95.70;;;;;;4987438;28;20125;-68
2021/12/26 01:09:28;;;;;;;6.40;1.17;;;-5.30;95.60;;;;;;4987932;28;20563;-68
2021/12/26 01:11:59;;;;;;;4.15;1.40;;;-5.40;96.00;;;;;;4995867;28;20143;-68
2021/12/26 01:14:31;;;;;;;2.20;1.10;;;-5.30;96.00;;;;;;4988132;28;20045;-67
2021/12/26 01:17:11;;;;;;;3.30;1.38;;;-5.30;96.30;;;;;;4992749;28;20118;-67
2021/12/26 01:19:44;;;;;;;4.28;1.40;;;-5.30;96.10;;;;;;4986158;28;20041;-68
2021/12/26 01:22:10;;;;;;;4.10;1.27;;;-5.40;95.80;;;;;;4978705;28;20070;-68
2021/12/26 01:24:36;;;;;;;3.27;1.20;;;-5.40;95.40;;;;;;4996362;28;20172;-65
2021/12/26 01:27:02;;;;;;;4.47;1.50;;;-5.40;95.40;;;;;;5000394;28;20037;-65
2021/12/26 01:29:28;;;;;;;7.43;2.25;;;-5.40;95.30;;;;;;4998036;28;20057;-64
2021/12/26 01:31:53;;;;;;;3.67;1.40;;;-5.40;95.60;;;;;;4988331;28;20035;-64
2021/12/26 01:34:19;;;;;;;3.27;1.30;;;-5.40;95.30;;;;;;5017032;28;20171;-66
2021/12/26 01:36:46;;;;;;;6.03;2.00;;;-5.40;95.70;;;;;;4998160;28;20418;-65
2021/12/26 01:39:11;;;;;;;;;;;-5.40;95.70;;;;;;4994649;28;20030;-68
2021/12/26 01:41:41;;;;;;;2.65;1.13;;;-5.40;94.10;;;;;;5002374;28;19928;-66
2021/12/26 01:44:10;;;;;;;5.88;1.73;;;-5.40;94.60;;;;;;4995493;28;20030;-65
2021/12/26 01:46:36;;;;;;;1.77;1.10;;;-5.40;95.20;;;;;;4976017;28;20046;-67
2021/12/26 01:49:13;;;;;;;3.03;1.13;;;-5.40;94.90;;;;;;4991763;28;20401;-66
2021/12/26 01:51:40;;;;;;;1.55;0.80;;;-5.40;95.00;;;;;;4999912;28;20038;-69
2021/12/26 01:54:09;;;;;;;;;;;-5.40;95.30;;;;;;4998366;28;20263;-66
2021/12/26 01:56:36;;;;;;;4.80;1.80;;;-5.40;94.70;;;;;;5003291;28;19921;-66
2021/12/26 01:59:04;;;;;;;4.65;1.77;;;-5.40;94.90;;;;;;4991412;28;20045;-66
2021/12/26 02:01:29;;;;;;;4.00;1.50;;;-5.40;95.30;;;;;;4994232;28;20490;-66
2021/12/26 02:03:56;;;;;;;2.97;1.07;;;-5.40;95.30;;;;;;4998730;28;20038;-67
2021/12/26 02:06:22;;;;;;;2.95;1.27;;;-5.40;95.30;;;;;;4988174;28;20910;-67
2021/12/26 02:08:48;;;;;;;2.97;1.10;;;-5.40;94.70;;;;;;4997013;28;20037;-66
2021/12/26 02:11:15;;;;;;;3.50;1.15;;;-5.40;94.30;;;;;;4993707;28;20029;-66
2021/12/26 02:13:40;;;;;;;10.07;1.60;;;-5.40;93.90;;;;;;4988769;28;20035;-65
2021/12/26 02:16:07;;;;;;;8.47;1.27;;;-5.50;93.90;;;;;;4985826;28;20511;-66
2021/12/26 02:18:33;;;;;;;2.50;1.27;;;-5.50;93.70;;;;;;5000513;28;20368;-66
2021/12/26 02:28:46;;;;;;;4.63;1.20;;;-5.50;93.70;;;;;;4982018;28;20081;-66
2021/12/26 02:31:13;;;;;;;2.05;1.20;;;-5.50;94.30;;;;;;5000709;28;20281;-66
2021/12/26 02:33:40;;;;;;;4.20;1.50;;;-5.50;94.20;;;;;;4999584;28;20130;-66
2021/12/26 02:36:06;;;;;;;2.13;0.93;;;-5.50;94.50;;;;;;4994601;28;20484;-67
2021/12/26 02:38:32;;;;;;;;;;;-5.50;94.10;;;;;;5009913;28;20065;-68
2021/12/26 02:40:59;;;;;;;7.05;1.35;;;-5.50;93.70;;;;;;4992050;28;20279;-68
2021/12/26 02:43:29;;;;;;;2.13;1.00;;;-5.50;94.30;;;;;;4987058;28;20038;-68
2021/12/26 02:45:54;;;;;;;6.95;1.33;;;-5.50;94.00;;;;;;4974020;28;20567;-65
2021/12/26 02:48:20;;;;;;;2.43;1.17;;;-5.50;93.80;;;;;;4992908;28;20129;-66
2021/12/26 02:50:52;;;;;;;2.03;1.10;;;-5.50;92.70;;;;;;4986023;28;20073;-65
2021/12/26 02:53:20;;;;;;;3.22;1.00;;;-5.50;92.60;;;;;;4989336;28;20035;-65
2021/12/26 02:55:54;;;;;;;6.13;1.83;;;-5.50;92.70;;;;;;4999267;28;20311;-66
2021/12/26 02:58:21;;;;;;;3.17;1.13;;;-5.60;92.90;;;;;;4987765;28;20062;-65
2021/12/26 03:00:53;;;;;;;7.70;1.50;;;-5.60;92.90;;;;;;5000600;28;20038;-66
2021/12/26 03:03:19;;;;;;;1.92;0.90;;;-5.60;92.30;;;;;;4988349;28;20034;-66
2021/12/26 03:05:46;;;;;;;2.97;1.20;;;-5.50;92.10;;;;;;4996157;28;20112;-65
2021/12/26 03:08:16;;;;;;;2.75;1.13;;;-5.60;92.00;;;;;;4992659;28;20117;-65
2021/12/26 03:10:43;;;;;;;2.08;1.15;;;-5.60;92.60;;;;;;4994844;28;20038;-65
2021/12/26 03:13:11;;;;;;;3.95;1.27;;;-5.60;92.30;;;;;;4998503;28;20122;-65
2021/12/26 03:15:39;;;;;;;2.25;1.08;;;-5.60;92.50;;;;;;4996219;28;20073;-66
2021/12/26 03:18:06;;;;;;;3.53;1.33;;;-5.60;91.70;;;;;;5001559;28;20355;-66
2021/12/26 03:20:38;;;;;;;3.08;1.50;;;-5.60;92.20;;;;;;4996654;28;20038;-66
2021/12/26 03:23:06;;;;;;;3.53;1.05;;;-5.60;91.50;;;;;;4983125;28;20403;-66
2021/12/26 03:25:32;;;;;;;2.25;1.00;;;-5.60;91.90;;;;;;5071451;23;20326;-65
2021/12/26 03:27:58;;;;;;;3.83;1.58;;;-5.50;91.30;;;;;;4982195;28;20048;-66
2021/12/26 03:30:37;;;;;;;2.50;1.10;;;-5.60;91.60;;;;;;4981881;28;20049;-67
2021/12/26 03:33:05;;;;;;;2.85;1.23;;;-5.60;91.20;;;;;;4995899;28;20029;-65
2021/12/26 03:35:31;;;;;;;6.72;3.08;;;-5.60;91.40;;;;;;4995720;28;20038;-67
2021/12/26 03:37:59;;;;;;;4.45;1.88;;;-5.60;91.70;;;;;;4989451;28;20530;-65
2021/12/26 03:40:24;;;;;;;2.70;1.10;;;-5.60;91.10;;;;;;4992554;28;20053;-66
2021/12/26 03:42:52;;;;;;;2.93;1.43;;;-5.60;91.20;;;;;;4984557;28;20050;-65
2021/12/26 03:45:18;;;;;;;3.88;1.00;;;-5.60;91.50;;;;;;5008913;28;20044;-65
2021/12/26 03:47:48;;;;;;;3.13;1.30;;;-5.60;91.50;;;;;;4979860;28;20047;-64
2021/12/26 03:50:15;;;;;;;3.53;1.60;;;-5.60;90.90;;;;;;4974038;28;20116;-66
2021/12/26 03:52:41;;;;;;;;;;;-5.60;91.20;;;;;;5003839;28;20458;-66
2021/12/26 03:55:07;;;;;;;4.90;1.02;;;-5.60;91.20;;;;;;4989356;28;20269;-66
2021/12/26 03:57:32;;;;;;;3.42;1.60;;;-5.70;91.20;;;;;;4977341;28;20053;-67
2021/12/26 03:59:58;;;;;;;6.80;1.60;;;-5.70;90.70;;;;;;5005314;28;20486;-66
2021/12/26 04:02:24;;;;;;;3.60;1.60;;;-5.70;91.00;;;;;;4984331;28;20045;-65
2021/12/26 04:04:49;;;;;;;3.37;1.13;;;-5.60;91.10;;;;;;4977439;28;20053;-66
2021/12/26 04:07:15;;;;;;;2.43;0.90;;;-5.70;90.80;;;;;;4988263;28;20048;-66
2021/12/26 04:09:41;;;;;;;1.70;0.80;;;-5.70;91.10;;;;;;4997001;28;20550;-66
2021/12/26 04:12:07;;;;;;;4.73;1.13;;;-5.70;91.10;;;;;;4995330;28;20422;-66
2021/12/26 04:14:33;;;;;;;2.97;1.17;;;-5.70;91.20;;;;;;4997525;28;20049;-66
2021/12/26 04:16:58;;;;;;;2.07;1.47;;;-5.80;91.30;;;;;;5002732;28;20042;-67
2021/12/26 04:19:24;;;;;;;7.77;1.30;;;-5.60;91.70;;;;;;4999538;28;20038;-65
2021/12/26 04:21:49;;;;;;;2.03;1.10;;;-5.70;91.10;;;;;;5003109;28;20041;-66
2021/12/26 04:24:15;;;;;;;1.97;0.97;;;-5.80;91.00;;;;;;4993983;28;20049;-66
2021/12/26 04:26:41;;;;;;;3.90;1.47;;;-5.80;91.10;;;;;;4978224;28;20049;-66
2021/12/26 04:29:08;;;;;;;3.80;1.20;;;-5.80;91.00;;;;;;4983106;28;20132;-66
2021/12/26 04:31:34;;;;;;;3.92;1.15;;;-5.80;90.90;;;;;;4990865;28;20307;-66
2021/12/26 04:33:59;;;;;;;1.77;1.27;;;-5.80;91.00;;;;;;4996941;28;20026;-67
2021/12/26 04:36:26;;;;;;;6.83;2.30;;;-5.80;91.10;;;;;;4992101;28;20092;-65
2021/12/26 04:38:51;;;;;;;9.98;2.70;;;-5.80;91.20;;;;;;4997922;28;20046;-66
2021/12/26 04:41:18;;;;;;;4.40;1.73;;;-5.80;91.30;;;;;;4986386;28;20550;-67
2021/12/26 04:43:43;;;;;;;4.50;2.03;;;-5.80;90.90;;;;;;4994203;28;20418;-66
2021/12/26 04:46:10;;;;;;;3.83;1.73;;;-5.80;90.60;;;;;;4985160;28;20041;-66
2021/12/26 04:48:37;;;;;;;4.15;2.03;;;-5.80;90.70;;;;;;4988832;28;20080;-66
2021/12/26 04:51:05;;;;;;;3.83;1.73;;;-5.80;90.80;;;;;;4997657;28;20042;-65
2021/12/26 04:53:31;;;;;;;6.22;2.40;;;-5.80;91.00;;;;;;4989922;28;20069;-67
2021/12/26 04:55:57;;;;;;;3.60;1.55;;;-5.80;90.60;;;;;;5006801;28;20107;-66
2021/12/26 04:58:22;;;;;;;1.50;0.80;;;-5.80;90.80;;;;;;5000241;28;20264;-66
2021/12/26 05:00:48;;;;;;;3.50;1.20;;;-5.90;90.90;;;;;;4976111;28;20130;-68
2021/12/26 05:03:14;;;;;;;3.03;1.42;;;-5.90;90.90;;;;;;5005477;28;20050;-67
2021/12/26 05:05:40;;;;;;;3.07;1.17;;;-5.90;90.80;;;;;;4994926;28;20038;-67
2021/12/26 05:08:06;;;;;;;3.50;1.17;;;-5.90;90.60;;;;;;4977861;28;20035;-66
2021/12/26 05:10:32;;;;;;;3.90;1.30;;;-5.90;91.00;;;;;;4977908;28;20104;-65
2021/12/26 05:13:00;;;;;;;4.28;0.95;;;-5.80;91.00;;;;;;4978094;28;20061;-65
2021/12/26 05:15:27;;;;;;;2.30;1.15;;;-5.90;91.20;;;;;;5003971;28;20502;-65
2021/12/26 05:17:54;;;;;;;2.65;1.00;;;-5.90;91.40;;;;;;4985583;28;20100;-66
2021/12/26 05:20:20;;;;;;;3.78;1.15;;;-5.90;91.40;;;;;;4988464;28;20448;-68
2021/12/26 05:22:47;;;;;;;3.88;1.20;;;-5.90;91.20;;;;;;4976968;28;20497;-69
2021/12/26 05:25:14;;;;;;;6.68;1.27;;;-5.90;91.10;;;;;;4998027;28;20038;-66
2021/12/26 05:27:40;;;;;;;3.97;1.65;;;-5.90;91.00;;;;;;5008125;28;20097;-66
2021/12/26 05:30:11;;;;;;;2.35;1.35;;;-5.90;91.00;;;;;;4981481;28;20410;-66
2021/12/26 05:32:37;;;;;;;2.92;1.20;;;-5.90;91.10;;;;;;4993344;28;20449;-66
2021/12/26 05:35:03;;;;;;;2.50;1.20;;;-5.90;91.30;;;;;;5003223;28;20042;-66
2021/12/26 05:37:29;;;;;;;3.70;1.48;;;-5.90;91.30;;;;;;4999785;28;20042;-67
2021/12/26 05:39:56;;;;;;;2.77;1.33;;;-5.90;91.30;;;;;;4987112;28;20108;-66
2021/12/26 05:42:22;;;;;;;5.60;1.20;;;-5.90;91.60;;;;;;5004701;28;20044;-66
2021/12/26 05:44:48;;;;;;;3.70;1.37;;;-5.90;91.20;;;;;;4991921;28;20042;-66
2021/12/26 05:47:14;;;;;;;2.13;1.40;;;-5.80;91.10;;;;;;4997334;28;20228;-66
2021/12/26 05:49:40;;;;;;;4.57;1.63;;;-5.80;91.10;;;;;;5007063;28;20034;-65
2021/12/26 05:52:07;;;;;;;6.40;1.20;;;-5.80;91.30;;;;;;5001345;28;20033;-65
2021/12/26 05:54:33;;;;;;;2.35;1.23;;;-5.90;91.20;;;;;;4984142;28;20125;-67
2021/12/26 05:56:58;;;;;;;4.00;1.33;;;-5.90;91.50;;;;;;5003816;28;20549;-66
2021/12/26 05:59:24;;;;;;;6.93;1.23;;;-5.90;90.80;;;;;;4985745;28;20041;-65
2021/12/26 06:01:50;;;;;;;3.67;1.47;;;-5.80;91.10;;;;;;4992462;28;20058;-65
2021/12/26 06:04:15;;;;;;;2.47;1.30;;;-5.80;91.30;;;;;;5005763;28;20041;-66
2021/12/26 06:06:43;;;;;;;2.20;1.20;;;-5.90;90.80;;;;;;4985662;28;20070;-66
2021/12/26 06:09:09;;;;;;;3.17;1.00;;;-5.80;90.80;;;;;;4967332;28;20116;-65
2021/12/26 06:11:35;;;;;;;5.67;1.47;;;-5.80;90.80;;;;;;4993658;28;20511;-66
2021/12/26 06:14:00;;;;;;;3.13;1.40;;;-5.80;90.70;;;;;;5001254;28;20284;-65
2021/12/26 06:16:26;;;;;;;4.70;1.40;;;-5.90;90.80;;;;;;5000221;28;20049;-65
2021/12/26 06:18:52;;;;;;;4.27;1.53;;;-5.90;90.90;;;;;;5005751;28;20113;-66
2021/12/26 06:21:17;;;;;;;4.60;1.40;;;-5.90;91.00;;;;;;4984074;28;20069;-66
2021/12/26 06:23:50;;;;;;;4.37;1.60;;;-5.90;91.10;;;;;;4995636;28;20518;-67
2021/12/26 06:26:16;;;;;;;2.47;1.27;;;-5.90;91.10;;;;;;5005880;28;20049;-67
2021/12/26 06:28:42;;;;;;;5.43;1.10;;;-5.90;90.80;;;;;;4976161;28;20129;-66
2021/12/26 06:31:07;;;;;;;3.80;1.37;;;-5.90;91.00;;;;;;5005987;28;20128;-66
2021/12/26 06:33:33;;;;;;;3.27;1.33;;;-5.90;91.10;;;;;;4975092;28;20038;-66
2021/12/26 06:35:59;;;;;;;9.03;2.87;;;-5.90;90.80;;;;;;5008933;28;20041;-66
2021/12/26 06:38:24;;;;;;;6.70;1.80;;;-5.90;90.90;;;;;;4977284;28;20038;-65
2021/12/26 06:40:50;;;;;;;3.30;1.93;;;-5.90;90.40;;;;;;4995190;28;20069;-66
2021/12/26 06:43:15;;;;;;;5.83;1.30;;;-5.90;90.50;;;;;;4994300;28;20210;-66
2021/12/26 06:45:41;;;;;;;3.57;1.67;;;-5.90;90.80;;;;;;4988872;28;20121;-66
2021/12/26 06:48:07;;;;;;;3.10;1.50;;;-5.90;91.00;;;;;;4981934;28;20045;-66
2021/12/26 06:50:33;;;;;;;7.30;1.50;;;-5.90;90.90;;;;;;4992947;28;20145;-66
2021/12/26 06:52:58;;;;;;;7.63;1.80;;;-5.90;91.00;;;;;;4991637;28;20383;-67
2021/12/26 06:55:24;;;;;;;3.97;1.83;;;-5.90;90.90;;;;;;4999445;28;20034;-66
2021/12/26 06:57:50;;;;;;;4.13;1.47;;;-5.90;91.00;;;;;;5001371;28;20042;-66
2021/12/26 07:00:17;;;;;;;6.10;1.47;;;-5.90;91.00;;;;;;4998951;28;20099;-65
2021/12/26 07:02:43;;;;;;;;;;;-5.90;91.00;;;;;;4986607;28;20045;-66
2021/12/26 07:05:11;;;;;;;4.78;1.80;;;-5.90;90.80;;;;;;4982981;28;20375;-67
2021/12/26 07:07:37;;;;;;;6.00;1.60;;;-5.90;90.80;;;;;;4971155;28;20329;-65
2021/12/26 07:10:04;;;;;;;3.87;1.90;;;-5.90;90.90;;;;;;4999803;28;20715;-66
2021/12/26 07:12:30;;;;;;;3.50;1.77;;;-5.90;91.10;;;;;;4981082;28;20117;-67
2021/12/26 07:14:55;;;;;;;3.80;1.57;;;-5.90;90.90;;;;;;4983850;28;20124;-66
2021/12/26 07:17:21;;;;;;;5.23;1.80;;;-5.90;90.80;;;;;;5002134;28;20060;-66
2021/12/26 07:19:46;;;;;;;3.00;1.47;;;-5.90;90.80;;;;;;5002223;28;20046;-66
2021/12/26 07:22:12;;;;;;;4.07;1.53;;;-5.90;91.00;;;;;;4996737;28;20117;-66
2021/12/26 07:24:43;;;;;;;5.67;2.50;;;-5.90;91.10;;;;;;4985802;28;20383;-65
2021/12/26 07:27:12;;;;;;;9.13;2.15;;;-5.90;91.10;;;;;;4996338;28;20049;-65
2021/12/26 07:29:41;;;;;;;4.90;1.50;;;-5.90;91.10;;;;;;4977583;28;20058;-66
2021/12/26 07:32:08;;;;;;;4.45;1.63;;;-5.90;90.70;;;;;;5000120;28;20222;-66
2021/12/26 07:34:34;;;;;;;3.95;1.90;;;-5.90;90.70;;;;;;4986189;28;20037;-67
2021/12/26 07:37:00;;;;;;;3.27;1.33;;;-5.90;90.50;;;;;;4997916;28;20393;-66
2021/12/26 07:39:26;;;;;;;;;;;-5.90;90.90;;;;;;4997918;28;20084;-65
2021/12/26 07:41:52;;;;;;;5.10;1.95;;;-5.90;90.90;;;;;;5006158;28;19968;-66
2021/12/26 07:44:17;;;;;;;6.10;2.07;;;-5.90;90.80;;;;;;4989472;28;20046;-67
2021/12/26 07:46:43;;;;;;;7.07;2.03;;;-5.80;90.70;;;;;;4972819;28;20512;-67
2021/12/26 07:49:08;;;;;;;3.73;1.83;;;-5.90;90.80;;;;;;4994805;28;20038;-66
2021/12/26 07:51:38;;;;;;;7.00;1.97;;;-5.90;91.00;;;;;;5002687;28;20374;-64
2021/12/26 07:54:03;;;;;;;4.55;2.05;;;-5.90;90.70;;;;;;4977713;28;20140;-66
2021/12/26 07:56:30;;;;;;;4.07;2.10;;;-5.80;90.80;;;;;;4983669;28;20117;-65
2021/12/26 07:58:56;;;;;;;5.78;2.05;;;-5.80;90.20;;;;;;5004044;28;20037;-66
2021/12/26 08:01:22;;;;;;;4.40;1.90;;;-5.80;90.50;;;;;;4979760;28;20070;-66
2021/12/26 08:03:48;;;;;;;10.63;3.05;;;-5.80;90.80;;;;;;4993200;28;20057;-66
2021/12/26 08:06:18;;;;;;;4.87;1.97;;;-5.80;90.80;;;;;;5004988;28;20398;-67
2021/12/26 08:08:46;;;;;;;3.20;1.90;;;-5.80;90.70;;;;;;5005832;28;20506;-66
2021/12/26 08:11:12;;;;;;;4.45;2.10;;;-5.80;90.90;;;;;;4992957;28;20062;-66
2021/12/26 08:13:37;;;;;;;4.55;2.17;;;-5.70;90.70;;;;;;4971187;28;20445;-67
2021/12/26 08:16:03;;;;;;;3.60;1.93;;;-5.70;90.90;;;;;;4989912;28;20085;-65
2021/12/26 08:18:29;;;;;;;4.63;2.15;;;-5.70;91.00;;;;;;4982165;28;20044;-66
2021/12/26 08:20:55;;;;;;;5.97;2.53;;;-5.70;90.70;;;;;;4983741;28;20580;-67
2021/12/26 08:23:20;;;;;;;4.17;2.33;;;-5.70;90.80;;;;;;4989474;28;20487;-66
2021/12/26 08:25:46;;;;;;;4.47;1.87;;;-5.60;90.60;;;;;;4973793;28;20065;-66
2021/12/26 08:28:16;;;;;;;6.60;2.47;;;-5.60;90.50;;;;;;4994533;28;20152;-66
2021/12/26 08:30:43;;;;;;;5.68;2.38;;;-5.60;90.60;;;;;;4979922;28;20145;-67
2021/12/26 08:33:09;;;;;;;6.22;2.35;;;-5.50;90.80;;;;;;4980850;28;20041;-65
2021/12/26 08:35:35;;;;;;;3.92;2.03;;;-5.50;90.90;;;;;;4974386;28;20061;-66
2021/12/26 08:38:01;;;;;;;5.00;2.42;;;-5.50;90.70;;;;;;4994544;28;20052;-66
2021/12/26 08:40:28;;;;;;;6.28;2.95;;;-5.40;90.30;;;;;;4994541;28;20113;-65
2021/12/26 08:42:53;;;;;;;6.40;3.00;;;-5.40;90.30;;;;;;5007737;28;20042;-66
2021/12/26 08:45:19;;;;;;;4.87;2.23;;;-5.40;90.10;;;;;;4976332;28;20049;-66
2021/12/26 08:47:46;;;;;;;9.65;2.55;;;-5.30;88.80;;;;;;4997971;28;20042;-65
2021/12/26 08:50:12;;;;;;;;;;;-5.30;89.80;;;;;;4970462;28;20403;-65
2021/12/26 08:52:39;;;;;;;4.65;2.40;;;-5.20;88.20;;;;;;4984527;28;19921;-65
2021/12/26 08:55:05;;;;;;;3.67;2.28;;;-5.20;89.30;;;;;;4985291;28;20052;-67
2021/12/26 08:57:32;;;;;;;5.20;2.53;;;-5.20;88.30;;;;;;4989953;28;20395;-69
2021/12/26 08:59:59;;;;;;;6.38;2.30;;;-5.10;89.60;;;;;;4998037;28;20115;-69
2021/12/26 09:02:25;;;;;;;4.45;2.08;;;-5.10;88.50;;;;;;4999630;28;20037;-69
2021/12/26 09:04:50;;;;;;;5.10;1.92;;;-5.00;90.00;;;;;;4987134;28;20044;-69
2021/12/26 09:07:16;;;;;;;4.80;2.20;;;-4.90;89.70;;;;;;4988423;28;20708;-69
2021/12/26 09:09:42;;;;;;;4.33;2.17;;;-4.90;89.20;;;;;;5002949;28;20040;-69
2021/12/26 09:12:09;;;;;;;4.80;2.28;;;-4.80;89.10;;;;;;5001986;28;20414;-69
2021/12/26 09:14:35;;;;;;;3.78;2.30;;;-4.80;87.80;;;;;;5003839;28;20026;-69
2021/12/26 09:17:04;;;;;;;5.43;2.47;;;-4.70;88.80;;;;;;4994810;28;20034;-69
2021/12/26 09:19:30;;;;;;;5.72;2.28;;;-4.70;88.00;;;;;;5000895;28;20034;-69
2021/12/26 09:21:58;;;;;;;6.97;2.00;;;-4.60;86.30;;;;;;5003513;28;20498;-69
2021/12/26 09:24:23;;;;;;;4.13;2.25;;;-4.60;86.60;;;;;;4991935;28;20399;-69
2021/12/26 09:26:50;;;;;;;6.07;2.83;;;-4.50;87.20;;;;;;5016989;23;20048;-69
2021/12/26 09:29:16;;;;;;;4.97;2.30;;;-4.50;87.00;;;;;;5034333;28;20065;-69
2021/12/26 09:31:41;;;;;;;7.47;3.20;;;-4.40;86.10;;;;;;5037886;28;20076;-69
2021/12/26 09:34:17;;;;;;;8.17;2.70;;;-4.30;87.40;;;;;;5015557;28;20068;-69
2021/12/26 09:36:44;;;;;;;5.55;2.13;;;-4.40;87.30;;;;;;5023595;28;21197;-69
2021/12/26 09:39:10;;;;;;;3.95;1.92;;;-4.20;86.10;;;;;;5033777;28;20064;-69
2021/12/26 09:41:37;;;;;;;4.10;2.50;;;-4.10;86.50;;;;;;5026679;28;20394;-69
2021/12/26 09:44:03;;;;;;;;;;;-4.10;87.20;;;;;;5017797;28;20033;-69
2021/12/26 09:46:31;;;;;;;5.40;2.53;;;-4.00;84.10;;;;;;5017677;28;20315;-69
2021/12/26 09:48:58;;;;;;;5.10;2.40;;;-4.00;85.90;;;;;;5022750;28;20076;-69
2021/12/26 09:51:24;;;;;;;5.97;3.05;;;-3.80;84.20;;;;;;5037957;28;20033;-69
2021/12/26 09:53:50;;;;;;;7.55;3.28;;;-3.70;85.50;;;;;;5018084;28;20440;-69
2021/12/26 09:56:15;;;;;;;5.93;2.53;;;-3.60;86.10;;;;;;5043853;28;20040;-69
2021/12/26 09:59:09;;;;;;;4.30;2.23;;;-3.60;84.90;;;;;;5022358;28;20040;-69
2021/12/26 10:01:43;;;;;;;6.53;2.08;;;-3.50;83.40;;;;;;5017758;28;20171;-70
2021/12/26 10:04:24;;;;;;;4.07;1.95;;;-3.40;84.00;;;;;;5039645;28;20239;-69
2021/12/26 10:07:00;;;;;;;10.00;3.97;;;-3.30;85.00;;;;;;5043530;28;20514;-70
2021/12/26 10:09:26;;;;;;;4.80;2.70;;;-3.20;85.20;;;;;;5022441;28;20072;-71
2021/12/26 10:11:55;;;;;;;3.42;2.25;;;-3.10;82.50;;;;;;5026974;28;20037;-70
2021/12/26 10:14:33;;;;;;;7.72;3.13;;;-3.00;82.50;;;;;;5028439;28;20045;-72
2021/12/26 10:17:04;;;;;;;7.85;3.13;;;-2.90;83.30;;;;;;5045535;28;20149;-69
2021/12/26 10:19:34;;;;;;;6.82;3.10;;;-2.80;81.40;;;;;;5042127;28;20029;-69
2021/12/26 10:22:01;;;;;;;7.97;2.65;;;-2.80;82.90;;;;;;5028525;28;20090;-68
2021/12/26 10:24:39;;;;;;;7.85;2.80;;;-2.70;83.10;;;;;;5027235;28;20048;-71
2021/12/26 10:27:15;;;;;;;;;;;-2.60;82.70;;;;;;5023067;28;20508;-68
2021/12/26 10:29:41;;;;;;;6.63;2.60;;;-2.50;79.90;;;;;;5029893;28;20183;-67
2021/12/26 10:32:11;;;;;;;4.43;2.83;;;-2.50;82.70;;;;;;5041417;28;20029;-67
2021/12/26 10:34:48;;;;;;;5.15;2.03;;;-2.40;81.50;;;;;;5029016;28;20041;-67
2021/12/26 10:37:21;;;;;;;6.47;2.55;;;-2.30;79.80;;;;;;5038992;28;20055;-67
2021/12/26 10:39:56;;;;;;;5.47;2.50;;;-2.30;78.80;;;;;;5049165;28;20108;-67
2021/12/26 10:42:25;;;;;;;6.63;2.28;;;-2.20;80.40;;;;;;5025871;28;20458;-67
2021/12/26 10:44:54;;;;;;;5.25;2.50;;;-2.10;81.40;;;;;;5047057;28;20076;-68
2021/12/26 10:47:22;;;;;;;4.70;2.70;;;-2.10;82.00;;;;;;5045071;28;20071;-67
2021/12/26 10:49:56;;;;;;;4.88;2.50;;;-2.00;80.70;;;;;;5046498;28;20041;-67
2021/12/26 10:52:33;;;;;;;3.85;2.33;;;-1.90;80.70;;;;;;5032051;28;20040;-67
2021/12/26 10:55:04;;;;;;;6.20;2.80;;;-1.80;81.00;;;;;;5030761;28;20032;-67
2021/12/26 10:57:51;;;;;;;6.03;2.80;;;-1.80;79.70;;;;;;5033398;28;20524;-67
2021/12/26 11:00:26;;;;;;;3.75;2.50;;;-1.70;79.20;;;;;;5027215;28;20040;-67
2021/12/26 11:03:03;;;;;;;8.40;3.88;;;-1.60;80.00;;;;;;5026934;28;20053;-68
2021/12/26 11:05:41;;;;;;;5.80;2.33;;;-1.60;79.90;;;;;;5029940;28;20040;-67
2021/12/26 11:08:12;;;;;;;5.65;2.40;;;-1.60;79.70;;;;;;5040458;28;20102;-67
2021/12/26 11:10:48;;;;;;;3.92;2.42;;;-1.50;79.60;;;;;;5045032;28;20056;-67
2021/12/26 11:13:18;;;;;;;7.05;3.25;;;-1.50;79.30;;;;;;5044890;28;20454;-67
2021/12/26 11:15:46;;;;;;;4.45;2.63;;;-1.40;78.80;;;;;;5045550;28;20115;-67
2021/12/26 11:18:15;;;;;;;5.88;2.50;;;-1.40;79.10;;;;;;5043678;28;20033;-67
2021/12/26 11:20:43;;;;;;;5.00;2.47;;;-1.30;79.60;;;;;;5027116;28;20071;-67
2021/12/26 11:23:15;;;;;;;5.20;2.80;;;-1.30;79.70;;;;;;5022256;28;20374;-67
2021/12/26 11:25:45;;;;;;;4.65;2.70;;;-1.20;80.10;;;;;;5025054;28;20045;-70
2021/12/26 11:28:13;;;;;;;5.30;2.65;;;-1.20;80.30;;;;;;5023033;28;20485;-69
2021/12/26 11:30:39;;;;;;;5.43;2.42;;;-1.20;78.80;;;;;;5047981;28;20086;-71
2021/12/26 11:33:05;;;;;;;7.45;3.35;;;-1.10;79.90;;;;;;5042358;28;20036;-71
2021/12/26 11:35:32;;;;;;;6.60;3.08;;;-1.00;78.10;;;;;;5025335;28;20087;-70
2021/12/26 11:38:01;;;;;;;5.90;2.67;;;-1.00;80.30;;;;;;5041232;28;20079;-70
2021/12/26 11:40:27;;;;;;;5.25;2.70;;;-0.90;80.10;;;;;;5040781;28;20512;-70
2021/12/26 11:43:40;;;;;;;8.73;3.13;;;-0.80;80.70;;;;;;5037754;28;20037;-70
2021/12/26 11:46:34;;;;;;;5.13;2.60;;;-0.70;80.60;;;;;;5019572;28;20045;-70
2021/12/26 11:49:37;;;;;;;10.48;2.90;;;-0.60;81.00;;;;;;5017418;28;20397;-69
2021/12/26 11:52:13;;;;;;;7.10;3.08;;;-0.50;80.80;;;;;;5028149;28;20033;-68
2021/12/26 11:55:00;;;;;;;7.85;2.72;;;-0.40;78.70;;;;;;5018914;28;20518;-68
2021/12/26 11:57:38;;;;;;;7.60;2.88;;;-0.40;79.90;;;;;;5016046;28;20196;-68
2021/12/26 12:00:10;;;;;;;6.78;3.10;;;-0.40;78.40;;;;;;5024971;28;20064;-71
2021/12/26 12:02:42;;;;;;;7.55;2.95;;;-0.20;80.30;;;;;;5020405;28;20374;-73
2021/12/26 12:05:18;;;;;;;5.30;2.72;;;-0.20;80.00;;;;;;5020762;28;20045;-69
2021/12/26 12:07:50;;;;;;;6.03;3.10;;;-0.10;79.10;;;;;;5020682;28;20045;-73
2021/12/26 12:10:38;;;;;;;6.13;2.92;;;-0.10;78.70;;;;;;5020532;28;20041;-73
2021/12/26 12:13:05;;;;;;;4.50;2.22;;;0.00;77.90;;;;;;5005485;28;20379;-69
2021/12/26 12:15:48;;;;;;;6.40;2.90;;;0.00;79.50;;;;;;5019481;28;20112;-73
2021/12/26 12:18:18;;;;;;;5.05;2.70;;;0.00;78.60;;;;;;5019563;28;20040;-70
2021/12/26 12:20:45;;;;;;;5.53;2.85;;;0.10;79.60;;;;;;5024304;28;20518;-69
2021/12/26 12:23:17;;;;;;;5.22;2.90;;;0.10;78.50;;;;;;5021019;28;20699;-73
2021/12/26 12:25:50;;;;;;;6.13;3.00;;;0.10;78.30;;;;;;5002991;28;20041;-71
2021/12/26 12:28:42;;;;;;;5.60;2.58;;;0.20;78.50;;;;;;5027091;28;20397;-73
2021/12/26 12:31:08;;;;;;;7.32;3.42;;;0.20;78.00;;;;;;5019378;28;20379;-66
2021/12/26 12:33:37;;;;;;;7.80;2.97;;;0.30;78.70;;;;;;5028675;28;20083;-67
2021/12/26 12:36:09;;;;;;;5.05;2.72;;;0.30;79.20;;;;;;5022761;28;20052;-67
2021/12/26 12:38:41;;;;;;;6.57;3.08;;;0.40;79.20;;;;;;5019024;28;20097;-67
2021/12/26 12:41:35;;;;;;;8.50;3.25;;;0.40;80.30;;;;;;5021572;28;20048;-67
2021/12/26 12:44:06;;;;;;;9.73;3.00;;;0.40;79.80;;;;;;5020949;28;20099;-67
2021/12/26 12:46:51;;;;;;;7.25;3.38;;;0.40;78.70;;;;;;5039521;28;20042;-67
2021/12/26 12:49:17;;;;;;;4.57;2.55;;;0.50;79.10;;;;;;5039903;28;20036;-67
2021/12/26 12:51:45;;;;;;;6.33;2.83;;;0.40;78.10;;;;;;5012937;28;20041;-67
2021/12/26 12:54:32;;;;;;;6.93;3.35;;;0.40;77.80;;;;;;5037918;28;20068;-67
2021/12/26 12:57:01;;;;;;;8.38;3.38;;;0.40;79.20;;;;;;5027904;28;20045;-67
2021/12/26 12:59:38;;;;;;;7.07;3.17;;;0.40;78.70;;;;;;5023285;28;20049;-67
2021/12/26 13:02:25;;;;;;;6.00;3.15;;;0.30;78.90;;;;;;5018401;28;20123;-66
2021/12/26 13:04:51;;;;;;;5.03;2.95;;;0.20;78.50;;;;;;5003789;28;20501;-66